Time;durP1;ratioP1;P1;durP2;ratioP2;P2;SDS_P1;SDS_P2;PMS_P1;PMS_P2;Temp;Humidity;BMP_temperature;BMP_pressure;BME280_temperature;BME280_humidity;BME280_pressure;Samples;Min_cycle;Max_cycle;Signal;HPM_P1;HPM_P2
2021/05/15 00:01:57;;;;;;;5.63;5.33;;;14.10;99.90;;;;;;5072848;28;20403;-82
2021/05/15 00:04:23;;;;;;;5.70;5.40;;;14.10;99.90;;;;;;5072222;28;20512;-82
2021/05/15 00:06:48;;;;;;;6.20;5.70;;;14.10;99.90;;;;;;5071249;28;20206;-82
2021/05/15 00:09:14;;;;;;;6.03;5.63;;;14.20;99.90;;;;;;5070946;28;20179;-82
2021/05/15 00:11:40;;;;;;;6.37;5.97;;;14.10;99.90;;;;;;5073018;28;20260;-82
2021/05/15 00:14:06;;;;;;;6.30;5.97;;;14.20;99.90;;;;;;5071562;28;20418;-83
2021/05/15 00:16:32;;;;;;;7.07;6.53;;;14.10;99.90;;;;;;5072145;28;20268;-82
2021/05/15 00:18:58;;;;;;;7.00;6.60;;;14.10;99.90;;;;;;5072905;28;20662;-82
2021/05/15 00:21:24;;;;;;;7.20;6.73;;;14.20;99.90;;;;;;5072068;28;20409;-83
2021/05/15 00:23:49;;;;;;;7.57;7.07;;;14.10;99.90;;;;;;5071079;28;20411;-82
2021/05/15 00:26:15;;;;;;;7.33;6.83;;;14.10;99.80;;;;;;5071862;28;20226;-82
2021/05/15 00:28:42;;;;;;;7.07;6.57;;;14.10;99.30;;;;;;5072705;28;20194;-82
2021/05/15 00:31:08;;;;;;;6.60;6.20;;;14.00;99.20;;;;;;5070603;28;20205;-83
2021/05/15 00:33:34;;;;;;;7.27;6.77;;;14.00;99.30;;;;;;5070650;28;20428;-82
2021/05/15 00:36:00;;;;;;;7.77;7.27;;;13.90;99.40;;;;;;5072596;28;20417;-82
2021/05/15 00:38:26;;;;;;;6.90;6.50;;;13.90;99.60;;;;;;5071885;28;20176;-82
2021/05/15 00:40:52;;;;;;;6.70;6.30;;;13.90;99.40;;;;;;5072035;28;20792;-82
2021/05/15 00:43:18;;;;;;;6.70;6.20;;;13.90;99.40;;;;;;5071776;28;20184;-83
2021/05/15 00:45:45;;;;;;;6.90;6.23;;;13.90;99.20;;;;;;5072052;28;20297;-82
2021/05/15 00:48:11;;;;;;;6.67;6.20;;;13.80;99.20;;;;;;5070450;28;20437;-84
2021/05/15 00:50:37;;;;;;;5.47;5.17;;;13.80;99.00;;;;;;5071660;28;20477;-82
2021/05/15 00:53:03;;;;;;;7.23;6.73;;;13.80;99.00;;;;;;5072140;28;20402;-82
2021/05/15 00:55:29;;;;;;;7.27;6.67;;;13.70;99.00;;;;;;5071727;28;20232;-83
2021/05/15 00:57:55;;;;;;;7.03;6.60;;;13.70;99.30;;;;;;5072082;28;20421;-82
2021/05/15 01:00:22;;;;;;;7.37;6.87;;;13.70;99.40;;;;;;5071556;28;20485;-82
2021/05/15 01:02:48;;;;;;;6.83;6.30;;;13.70;99.10;;;;;;5070270;28;20416;-82
2021/05/15 01:05:14;;;;;;;7.00;6.50;;;13.70;99.00;;;;;;5071855;28;20757;-83
2021/05/15 01:07:43;;;;;;;6.53;6.10;;;13.70;99.10;;;;;;5070542;28;20513;-82
2021/05/15 01:10:10;;;;;;;6.30;5.90;;;13.70;99.10;;;;;;5071368;28;20411;-82
2021/05/15 01:12:46;;;;;;;6.27;5.87;;;13.70;99.00;;;;;;5069871;28;20412;-82
2021/05/15 01:15:12;;;;;;;7.03;6.63;;;13.70;99.10;;;;;;5070754;28;20885;-84
2021/05/15 01:17:38;;;;;;;6.60;6.20;;;13.60;98.80;;;;;;5071833;28;20432;-82
2021/05/15 01:20:04;;;;;;;6.70;6.20;;;13.60;98.90;;;;;;5071513;28;20562;-82
2021/05/15 01:22:32;;;;;;;6.40;6.00;;;13.60;99.10;;;;;;5071145;28;20710;-82
2021/05/15 01:24:57;;;;;;;6.00;5.60;;;13.50;99.20;;;;;;5071871;28;20947;-82
2021/05/15 01:27:23;;;;;;;5.97;5.57;;;13.50;99.20;;;;;;5070601;28;20469;-83
2021/05/15 01:29:50;;;;;;;5.87;5.50;;;13.40;99.20;;;;;;5071856;28;20180;-82
2021/05/15 01:32:16;;;;;;;6.20;5.80;;;13.40;99.30;;;;;;5071231;28;20252;-83
2021/05/15 01:34:41;;;;;;;6.27;5.90;;;13.40;99.20;;;;;;5071574;28;20496;-82
2021/05/15 01:37:07;;;;;;;5.83;5.43;;;13.40;99.30;;;;;;5072092;28;20675;-82
2021/05/15 01:39:33;;;;;;;5.33;5.03;;;13.40;99.20;;;;;;5071189;28;20216;-82
2021/05/15 01:41:58;;;;;;;5.10;4.80;;;13.40;99.20;;;;;;5071960;28;20220;-82
2021/05/15 01:44:24;;;;;;;6.17;5.77;;;13.40;98.90;;;;;;5069473;28;20181;-82
2021/05/15 01:46:50;;;;;;;5.23;4.90;;;13.40;99.10;;;;;;5071785;28;20241;-82
2021/05/15 01:49:15;;;;;;;5.93;5.50;;;13.40;99.30;;;;;;5069813;28;20622;-83
2021/05/15 01:51:41;;;;;;;5.60;5.20;;;13.30;99.40;;;;;;5070298;28;20178;-79
2021/05/15 01:54:07;;;;;;;5.43;5.13;;;13.30;99.60;;;;;;5071355;28;20272;-80
2021/05/15 01:56:33;;;;;;;5.40;5.10;;;13.30;99.70;;;;;;5070575;28;20403;-79
2021/05/15 01:58:59;;;;;;;5.37;5.00;;;13.20;99.90;;;;;;5071124;28;20184;-79
2021/05/15 02:01:26;;;;;;;5.07;4.77;;;13.10;99.90;;;;;;5070990;28;20188;-81
2021/05/15 02:03:53;;;;;;;5.20;4.90;;;13.20;99.90;;;;;;5075139;28;20762;-79
2021/05/15 02:06:19;;;;;;;5.30;4.90;;;13.10;99.90;;;;;;5074199;28;20487;-79
2021/05/15 02:08:46;;;;;;;5.23;4.80;;;13.10;99.90;;;;;;5074215;28;20465;-79
2021/05/15 02:11:15;;;;;;;5.53;4.80;;;13.10;99.90;;;;;;5074154;28;20415;-79
2021/05/15 02:13:42;;;;;;;5.70;5.30;;;13.20;99.90;;;;;;5074598;28;20426;-79
2021/05/15 02:16:07;;;;;;;5.03;4.63;;;13.20;99.90;;;;;;5073836;28;20426;-79
2021/05/15 02:18:33;;;;;;;6.53;4.67;;;13.30;99.90;;;;;;5074130;28;20478;-79
2021/05/15 02:20:59;;;;;;;5.87;5.37;;;13.30;99.90;;;;;;5074595;28;20180;-79
2021/05/15 02:23:25;;;;;;;6.10;5.60;;;13.40;99.90;;;;;;5074329;28;20181;-79
2021/05/15 02:25:53;;;;;;;5.63;5.23;;;13.40;99.90;;;;;;5061760;28;20274;-79
2021/05/15 02:28:20;;;;;;;5.60;5.13;;;13.50;99.90;;;;;;5053670;28;20524;-79
2021/05/15 02:30:46;;;;;;;5.47;5.17;;;13.50;99.90;;;;;;5054733;28;20428;-79
2021/05/15 02:33:12;;;;;;;5.60;5.20;;;13.50;99.90;;;;;;5054906;28;20409;-78
2021/05/15 02:35:39;;;;;;;5.80;5.40;;;13.50;99.90;;;;;;5053850;28;20466;-78
2021/05/15 02:38:06;;;;;;;5.83;5.43;;;13.60;99.90;;;;;;5037417;28;20488;-79
2021/05/15 02:40:32;;;;;;;5.40;5.10;;;13.60;99.90;;;;;;5053703;28;20410;-79
2021/05/15 02:42:58;;;;;;;6.07;5.60;;;13.60;99.90;;;;;;5054457;28;20416;-78
2021/05/15 02:45:25;;;;;;;6.10;5.70;;;13.60;99.90;;;;;;5035987;28;20182;-79
2021/05/15 02:47:55;;;;;;;5.20;4.80;;;13.60;99.90;;;;;;5054221;28;20420;-78
2021/05/15 02:50:23;;;;;;;5.73;5.43;;;13.70;99.90;;;;;;5053663;28;20397;-78
2021/05/15 02:52:49;;;;;;;5.97;5.57;;;13.70;99.90;;;;;;5054209;28;20423;-78
2021/05/15 02:55:17;;;;;;;6.50;6.00;;;13.70;99.90;;;;;;5054399;28;20445;-78
2021/05/15 02:57:44;;;;;;;5.80;5.40;;;13.70;99.90;;;;;;5053724;28;20425;-78
2021/05/15 03:00:15;;;;;;;6.27;5.67;;;13.70;99.90;;;;;;5054156;28;20412;-78
2021/05/15 03:02:41;;;;;;;5.80;5.37;;;13.60;99.90;;;;;;5035978;28;20446;-80
2021/05/15 03:05:10;;;;;;;6.20;5.80;;;13.60;99.90;;;;;;5054283;28;20405;-81
2021/05/15 03:07:36;;;;;;;6.23;5.77;;;13.60;99.90;;;;;;5052830;28;20212;-82
2021/05/15 03:10:03;;;;;;;6.80;6.30;;;13.60;99.90;;;;;;5053882;28;20768;-82
2021/05/15 03:12:29;;;;;;;6.63;6.13;;;13.60;99.90;;;;;;5034420;28;20473;-82
2021/05/15 03:14:55;;;;;;;7.20;6.77;;;13.60;99.90;;;;;;5053485;28;20776;-82
2021/05/15 03:17:20;;;;;;;6.70;6.20;;;13.50;99.90;;;;;;5053082;28;20187;-85
2021/05/15 03:19:47;;;;;;;7.47;6.93;;;13.30;99.90;;;;;;5053789;28;20606;-81
2021/05/15 03:22:13;;;;;;;8.00;7.50;;;13.10;99.90;;;;;;5053459;28;20182;-82
2021/05/15 03:24:39;;;;;;;7.03;6.60;;;12.90;99.90;;;;;;5037543;28;20494;-82
2021/05/15 03:27:05;;;;;;;7.20;6.63;;;12.90;99.90;;;;;;5072164;28;20282;-82
2021/05/15 03:29:30;;;;;;;7.73;7.10;;;13.00;99.90;;;;;;5072729;28;20188;-81
2021/05/15 03:31:57;;;;;;;7.43;7.03;;;13.10;99.90;;;;;;5073178;28;20395;-81
2021/05/15 03:34:23;;;;;;;7.20;6.70;;;13.10;99.90;;;;;;5072840;28;20326;-81
2021/05/15 03:36:48;;;;;;;6.87;6.47;;;13.10;99.90;;;;;;5072285;28;20506;-80
2021/05/15 03:39:18;;;;;;;7.70;7.20;;;13.20;99.90;;;;;;5072384;28;20184;-81
2021/05/15 03:41:47;;;;;;;7.37;6.93;;;13.20;99.90;;;;;;5072782;28;20183;-81
2021/05/15 03:44:13;;;;;;;7.57;7.17;;;13.30;99.90;;;;;;5072994;28;20429;-81
2021/05/15 03:46:39;;;;;;;6.90;6.50;;;13.30;99.90;;;;;;5071885;28;20468;-80
2021/05/15 03:49:05;;;;;;;6.97;6.47;;;13.30;99.90;;;;;;5073491;28;20396;-81
2021/05/15 03:51:32;;;;;;;7.27;6.70;;;13.40;99.90;;;;;;5071300;28;20504;-81
2021/05/15 03:53:58;;;;;;;6.33;6.03;;;13.40;99.90;;;;;;5072107;28;20182;-81
2021/05/15 03:56:24;;;;;;;5.87;5.47;;;13.40;99.90;;;;;;5071283;28;20408;-82
2021/05/15 03:58:49;;;;;;;5.90;5.60;;;13.50;99.90;;;;;;5071838;28;20425;-81
2021/05/15 04:01:15;;;;;;;5.70;5.40;;;13.50;99.90;;;;;;5072996;28;20615;-81
2021/05/15 04:03:41;;;;;;;5.37;5.07;;;13.60;99.90;;;;;;5072454;28;20224;-81
2021/05/15 04:06:06;;;;;;;5.57;5.20;;;13.60;99.90;;;;;;5072658;28;20240;-81
2021/05/15 04:08:32;;;;;;;5.53;5.23;;;13.70;99.90;;;;;;5072065;28;20637;-81
2021/05/15 04:10:58;;;;;;;5.80;5.43;;;13.70;99.90;;;;;;5072760;28;20203;-81
2021/05/15 04:14:09;;;;;;;5.60;5.20;;;13.70;99.90;;;;;;5071890;28;20192;-83
2021/05/15 04:18:41;;;;;;;4.80;4.50;;;13.80;99.90;;;;;;5071877;28;20416;-81
2021/05/15 04:21:06;;;;;;;5.90;5.50;;;13.90;99.90;;;;;;5072672;28;20399;-81
2021/05/15 04:23:32;;;;;;;5.27;4.87;;;13.90;99.90;;;;;;5071542;28;20229;-81
2021/05/15 04:25:59;;;;;;;5.20;4.90;;;13.90;99.90;;;;;;5072538;28;20221;-81
2021/05/15 04:28:25;;;;;;;5.40;5.10;;;13.90;99.90;;;;;;5072044;28;20182;-83
2021/05/15 04:30:52;;;;;;;5.80;5.40;;;14.00;99.90;;;;;;5072371;28;20427;-80
2021/05/15 04:33:22;;;;;;;11.50;10.40;;;14.00;99.90;;;;;;5071166;28;20656;-81
2021/05/15 04:35:49;;;;;;;8.93;8.03;;;14.00;99.90;;;;;;5070906;28;20394;-81
2021/05/15 04:38:16;;;;;;;6.20;5.80;;;14.00;99.90;;;;;;5072103;28;20417;-81
2021/05/15 04:40:42;;;;;;;6.10;5.60;;;14.00;99.90;;;;;;5070575;28;20411;-81
2021/05/15 04:43:07;;;;;;;5.47;5.17;;;14.10;99.90;;;;;;5071451;28;20758;-80
2021/05/15 04:45:33;;;;;;;6.30;5.80;;;14.10;99.90;;;;;;5070094;28;20211;-81
2021/05/15 04:48:00;;;;;;;5.60;5.30;;;14.10;99.90;;;;;;5072291;28;20688;-81
2021/05/15 04:50:25;;;;;;;5.47;5.17;;;14.10;99.90;;;;;;5072041;28;20186;-83
2021/05/15 04:52:51;;;;;;;5.40;5.10;;;14.10;99.90;;;;;;5071214;28;20405;-81
2021/05/15 04:55:17;;;;;;;5.67;5.37;;;14.10;99.90;;;;;;5072537;28;20752;-81
2021/05/15 04:57:44;;;;;;;7.23;6.70;;;14.20;99.80;;;;;;5071537;28;20464;-81
2021/05/15 05:00:10;;;;;;;5.90;5.53;;;14.20;99.60;;;;;;5072387;28;20513;-80
2021/05/15 05:02:35;;;;;;;5.23;4.93;;;14.20;99.80;;;;;;5071164;28;20455;-81
2021/05/15 05:05:01;;;;;;;6.07;5.47;;;14.20;99.50;;;;;;5071283;28;20397;-81
2021/05/15 05:07:27;;;;;;;5.50;5.20;;;14.20;99.50;;;;;;5070248;28;20215;-84
2021/05/15 05:09:53;;;;;;;5.80;5.40;;;14.20;99.50;;;;;;5072359;28;20179;-81
2021/05/15 05:12:18;;;;;;;5.43;5.13;;;14.30;99.40;;;;;;5071847;28;20182;-81
2021/05/15 05:14:44;;;;;;;5.30;5.00;;;14.30;99.20;;;;;;5071319;28;20191;-81
2021/05/15 05:17:10;;;;;;;5.23;4.93;;;14.40;99.30;;;;;;5072293;28;20520;-81
2021/05/15 05:19:36;;;;;;;5.17;4.87;;;14.40;99.30;;;;;;5071221;28;20430;-81
2021/05/15 05:22:02;;;;;;;5.70;5.30;;;14.40;99.20;;;;;;5072207;28;20620;-81
2021/05/15 05:24:29;;;;;;;6.40;5.77;;;14.40;99.20;;;;;;5069702;28;20228;-84
2021/05/15 05:26:55;;;;;;;5.40;5.10;;;14.40;99.30;;;;;;5051596;28;20557;-81
2021/05/15 05:29:22;;;;;;;5.27;4.97;;;14.40;99.80;;;;;;5034032;28;20423;-81
2021/05/15 05:31:50;;;;;;;5.27;4.87;;;14.30;99.70;;;;;;5050362;28;20634;-81
2021/05/15 05:34:16;;;;;;;5.77;5.43;;;14.30;99.50;;;;;;5051749;28;20797;-81
2021/05/15 05:36:42;;;;;;;6.60;6.03;;;14.20;99.50;;;;;;5052809;28;20413;-81
2021/05/15 05:39:14;;;;;;;6.33;5.93;;;14.20;99.60;;;;;;5055791;28;20745;-82
2021/05/15 05:41:40;;;;;;;5.73;5.43;;;14.10;99.90;;;;;;5035788;28;20842;-81
2021/05/15 05:44:06;;;;;;;6.50;6.10;;;14.00;99.90;;;;;;5054554;28;20434;-81
2021/05/15 05:46:32;;;;;;;5.93;5.63;;;14.00;99.90;;;;;;5036689;28;20247;-81
2021/05/15 05:48:59;;;;;;;5.87;5.50;;;14.00;99.90;;;;;;5055728;28;20793;-81
2021/05/15 05:51:24;;;;;;;6.00;5.60;;;14.10;99.90;;;;;;5056015;28;20796;-80
2021/05/15 05:53:50;;;;;;;6.23;5.83;;;14.20;99.90;;;;;;5055334;28;20415;-81
2021/05/15 05:56:17;;;;;;;6.40;6.00;;;14.20;99.90;;;;;;5055864;28;20225;-81
2021/05/15 05:58:45;;;;;;;5.80;5.40;;;14.20;99.90;;;;;;5037492;28;20957;-80
2021/05/15 06:01:16;;;;;;;6.70;6.30;;;14.40;99.90;;;;;;5038088;28;20407;-81
2021/05/15 06:03:43;;;;;;;6.53;6.13;;;14.30;99.90;;;;;;5055135;28;20434;-81
2021/05/15 06:06:09;;;;;;;6.40;6.03;;;14.30;99.90;;;;;;5037737;28;20470;-80
2021/05/15 06:08:35;;;;;;;6.97;6.47;;;14.40;99.90;;;;;;5036005;28;20801;-81
2021/05/15 06:11:01;;;;;;;7.00;6.60;;;14.40;99.90;;;;;;5054543;28;20546;-81
2021/05/15 06:13:27;;;;;;;7.37;6.87;;;14.40;99.90;;;;;;5054887;28;20194;-81
2021/05/15 06:15:53;;;;;;;7.60;7.10;;;14.30;99.90;;;;;;5053993;28;20427;-81
2021/05/15 06:18:19;;;;;;;7.70;7.20;;;14.30;99.90;;;;;;5054811;28;20430;-80
2021/05/15 06:20:46;;;;;;;7.50;7.00;;;14.30;99.90;;;;;;5054115;28;20628;-81
2021/05/15 06:23:12;;;;;;;7.90;7.30;;;14.40;99.80;;;;;;5054706;28;20418;-80
2021/05/15 06:25:38;;;;;;;7.33;6.83;;;14.50;99.50;;;;;;5064701;28;20557;-82
2021/05/15 06:28:04;;;;;;;6.43;6.03;;;14.60;99.50;;;;;;5055399;28;20430;-82
2021/05/15 06:30:30;;;;;;;7.37;6.70;;;14.60;99.30;;;;;;5061237;28;20530;-83
2021/05/15 06:32:55;;;;;;;6.57;6.10;;;14.60;99.70;;;;;;5074719;28;20411;-82
2021/05/15 06:35:21;;;;;;;7.20;6.60;;;14.40;98.80;;;;;;5073194;28;20189;-82
2021/05/15 06:37:47;;;;;;;6.87;6.37;;;14.30;99.60;;;;;;5072876;28;20176;-83
2021/05/15 06:40:13;;;;;;;7.10;6.60;;;14.30;99.60;;;;;;5073717;28;20245;-82
2021/05/15 06:42:39;;;;;;;8.53;7.80;;;14.30;99.70;;;;;;5073046;28;20188;-82
2021/05/15 06:45:07;;;;;;;7.90;7.40;;;14.30;99.90;;;;;;5074280;28;20437;-83
2021/05/15 06:47:32;;;;;;;8.33;7.63;;;14.30;99.40;;;;;;5072455;28;20205;-83
2021/05/15 06:49:58;;;;;;;7.97;7.50;;;14.30;99.20;;;;;;5073904;28;20422;-79
2021/05/15 06:52:24;;;;;;;7.43;6.90;;;14.40;99.30;;;;;;5073323;28;20219;-81
2021/05/15 06:54:50;;;;;;;7.67;7.17;;;14.40;99.60;;;;;;5071246;28;20514;-81
2021/05/15 06:57:15;;;;;;;7.67;7.17;;;14.60;99.40;;;;;;5074163;28;20263;-81
2021/05/15 06:59:41;;;;;;;7.47;6.90;;;14.60;99.70;;;;;;5073052;28;20180;-82
2021/05/15 07:02:07;;;;;;;7.73;7.00;;;14.60;99.00;;;;;;5073540;28;20658;-82
2021/05/15 07:04:33;;;;;;;6.97;6.57;;;14.70;98.70;;;;;;5078215;28;20568;-84
2021/05/15 07:06:58;;;;;;;7.80;6.77;;;14.70;98.70;;;;;;5073949;28;20459;-82
2021/05/15 07:09:24;;;;;;;7.03;6.63;;;14.70;98.80;;;;;;5073675;28;20197;-83
2021/05/15 07:11:50;;;;;;;6.90;6.50;;;14.70;98.30;;;;;;5072033;28;20184;-82
2021/05/15 07:14:17;;;;;;;6.50;6.10;;;14.70;98.70;;;;;;5073903;28;20192;-82
2021/05/15 07:16:43;;;;;;;7.60;7.10;;;14.70;98.60;;;;;;5072905;28;20219;-82
2021/05/15 07:19:08;;;;;;;7.30;6.80;;;14.80;98.80;;;;;;5074058;28;20407;-82
2021/05/15 07:21:34;;;;;;;7.00;6.60;;;14.80;98.90;;;;;;5071639;28;20545;-80
2021/05/15 07:24:00;;;;;;;6.40;6.00;;;14.80;98.20;;;;;;5073536;28;20191;-78
2021/05/15 07:26:26;;;;;;;7.60;7.10;;;14.80;98.10;;;;;;5056310;28;20329;-77
2021/05/15 07:28:52;;;;;;;9.70;8.90;;;14.70;98.00;;;;;;5053288;28;20193;-77
2021/05/15 07:31:18;;;;;;;10.40;9.33;;;14.60;98.00;;;;;;5053818;28;20435;-79
2021/05/15 07:33:43;;;;;;;11.60;10.60;;;14.60;98.20;;;;;;5053088;28;20882;-80
2021/05/15 07:36:09;;;;;;;13.20;11.90;;;14.50;98.30;;;;;;5036350;28;20187;-80
2021/05/15 07:38:36;;;;;;;12.20;11.00;;;14.50;98.80;;;;;;5052484;28;20192;-81
2021/05/15 07:41:03;;;;;;;10.37;9.37;;;14.50;98.50;;;;;;5053260;28;20591;-81
2021/05/15 07:43:28;;;;;;;11.33;10.37;;;14.40;98.20;;;;;;5053163;28;20501;-81
2021/05/15 07:45:56;;;;;;;11.63;10.63;;;14.40;98.70;;;;;;5034376;28;20577;-80
2021/05/15 07:48:29;;;;;;;11.30;10.40;;;14.50;98.90;;;;;;5035329;28;20215;-82
2021/05/15 07:50:59;;;;;;;12.10;11.10;;;14.40;99.10;;;;;;5051802;28;20423;-81
2021/05/15 07:53:25;;;;;;;10.60;9.80;;;14.40;99.60;;;;;;5051656;28;20415;-80
2021/05/15 07:55:52;;;;;;;10.10;9.23;;;14.40;99.70;;;;;;5051864;28;20438;-80
2021/05/15 07:58:19;;;;;;;10.73;9.80;;;14.40;99.90;;;;;;5053542;28;20514;-80
2021/05/15 08:00:45;;;;;;;10.00;9.30;;;14.50;99.80;;;;;;5052606;28;20419;-80
2021/05/15 08:03:11;;;;;;;9.03;8.40;;;14.50;99.90;;;;;;5052213;28;20419;-80
2021/05/15 08:05:37;;;;;;;8.90;8.30;;;14.50;99.90;;;;;;5035048;28;20395;-77
2021/05/15 08:08:03;;;;;;;8.07;7.47;;;14.50;99.80;;;;;;5053194;28;20180;-78
2021/05/15 08:10:30;;;;;;;8.20;7.70;;;14.50;99.90;;;;;;5053310;28;20484;-78
2021/05/15 08:12:59;;;;;;;7.73;7.23;;;14.50;99.70;;;;;;5051718;28;20411;-75
2021/05/15 08:15:26;;;;;;;8.80;8.20;;;14.50;99.80;;;;;;5052913;28;20425;-86
2021/05/15 08:17:52;;;;;;;8.90;8.30;;;14.50;99.90;;;;;;5052394;28;20449;-80
2021/05/15 08:20:19;;;;;;;8.23;7.63;;;14.50;99.90;;;;;;5035463;28;20404;-80
2021/05/15 08:22:45;;;;;;;9.00;8.30;;;14.50;99.90;;;;;;5052089;28;20412;-80
2021/05/15 08:25:11;;;;;;;9.33;8.63;;;14.50;99.90;;;;;;5052956;28;20903;-79
2021/05/15 08:27:39;;;;;;;8.60;8.10;;;14.50;99.50;;;;;;5052025;28;20517;-80
2021/05/15 08:30:10;;;;;;;10.50;9.80;;;14.50;99.50;;;;;;5051757;28;20426;-79
2021/05/15 08:32:36;;;;;;;12.20;11.20;;;14.30;99.90;;;;;;5052373;28;20507;-81
2021/05/15 08:35:02;;;;;;;13.07;12.07;;;14.30;99.90;;;;;;5052591;28;20505;-80
2021/05/15 08:37:28;;;;;;;12.90;11.80;;;14.30;99.90;;;;;;5035082;28;20253;-79
2021/05/15 08:39:54;;;;;;;12.87;11.77;;;14.40;99.90;;;;;;5052104;28;20518;-80
2021/05/15 08:42:21;;;;;;;12.57;11.57;;;14.40;99.80;;;;;;5052758;28;20416;-80
2021/05/15 08:44:48;;;;;;;12.83;11.73;;;14.50;99.70;;;;;;5033990;28;20423;-80
2021/05/15 08:47:17;;;;;;;13.30;12.27;;;14.50;99.50;;;;;;5049010;28;20970;-80
2021/05/15 08:49:47;;;;;;;13.40;12.17;;;14.50;99.30;;;;;;5052076;28;20944;-80
2021/05/15 08:52:14;;;;;;;13.50;12.40;;;14.50;99.30;;;;;;5052590;28;20404;-80
2021/05/15 08:54:40;;;;;;;13.40;12.20;;;14.50;99.30;;;;;;5051989;28;20509;-80
2021/05/15 08:57:06;;;;;;;100.23;25.23;;;14.50;99.30;;;;;;5052538;28;20424;-79
2021/05/15 08:59:32;;;;;;;74.07;22.37;;;14.50;99.10;;;;;;5051991;28;20481;-80
2021/05/15 09:01:58;;;;;;;35.37;16.33;;;14.60;99.00;;;;;;5051261;28;20915;-80
2021/05/15 09:04:25;;;;;;;14.67;11.90;;;14.50;98.90;;;;;;5034385;28;20624;-80
2021/05/15 09:06:51;;;;;;;13.20;12.10;;;14.60;98.90;;;;;;5051148;28;20560;-80
2021/05/15 09:09:17;;;;;;;13.40;12.30;;;14.60;98.90;;;;;;5052608;28;20457;-80
2021/05/15 09:11:43;;;;;;;12.10;11.07;;;14.70;98.90;;;;;;5053957;28;20248;-81
2021/05/15 09:14:17;;;;;;;11.40;10.40;;;14.70;99.30;;;;;;5022045;28;20452;-81
2021/05/15 09:16:54;;;;;;;11.93;10.90;;;14.90;99.10;;;;;;5038231;28;20421;-81
2021/05/15 09:19:23;;;;;;;11.90;11.00;;;14.90;99.20;;;;;;5056115;28;20404;-80
2021/05/15 09:22:03;;;;;;;10.80;9.93;;;15.10;99.50;;;;;;5055664;28;20498;-81
2021/05/15 09:24:33;;;;;;;10.90;10.00;;;15.20;98.40;;;;;;5056298;28;20422;-80
2021/05/15 09:27:01;;;;;;;11.70;10.80;;;15.40;98.40;;;;;;5054431;28;20448;-81
2021/05/15 09:29:39;;;;;;;11.53;10.73;;;15.30;97.60;;;;;;5055148;28;21053;-80
2021/05/15 09:32:05;;;;;;;11.40;10.47;;;15.20;96.80;;;;;;5035256;28;20421;-80
2021/05/15 09:34:30;;;;;;;12.43;11.23;;;15.10;97.20;;;;;;5049758;28;20431;-80
2021/05/15 09:36:56;;;;;;;11.60;10.70;;;15.20;97.20;;;;;;5037307;28;20896;-80
2021/05/15 09:39:23;;;;;;;10.97;10.07;;;15.40;97.10;;;;;;5021333;28;20791;-79
2021/05/15 09:41:51;;;;;;;11.40;10.57;;;15.60;97.90;;;;;;5055373;28;20496;-79
2021/05/15 09:44:19;;;;;;;12.10;11.17;;;15.80;97.10;;;;;;5056168;28;20509;-80
2021/05/15 09:46:47;;;;;;;10.97;10.17;;;16.10;97.50;;;;;;5055153;28;20459;-80
2021/05/15 09:49:14;;;;;;;11.10;10.30;;;16.40;97.50;;;;;;5037693;28;20898;-79
2021/05/15 09:51:53;;;;;;;11.80;10.80;;;16.40;93.30;;;;;;5055610;28;20434;-81
2021/05/15 09:54:25;;;;;;;11.77;10.80;;;16.10;93.70;;;;;;5055869;28;20401;-80
2021/05/15 09:57:18;;;;;;;11.20;10.40;;;16.30;93.80;;;;;;5055131;28;20425;-80
2021/05/15 09:59:46;;;;;;;10.93;10.03;;;16.30;93.80;;;;;;5044627;28;20431;-80
2021/05/15 10:02:17;;;;;;;8.93;8.33;;;16.40;93.90;;;;;;5055225;28;20506;-80
2021/05/15 10:04:44;;;;;;;10.17;9.40;;;16.40;93.00;;;;;;5054945;28;20415;-80
2021/05/15 10:07:21;;;;;;;11.30;10.50;;;16.40;93.60;;;;;;5055166;28;20462;-80
2021/05/15 10:09:47;;;;;;;11.27;10.47;;;16.30;93.50;;;;;;5054978;28;20402;-79
2021/05/15 10:12:12;;;;;;;10.83;10.03;;;16.20;94.50;;;;;;5054365;28;20415;-80
2021/05/15 10:14:38;;;;;;;11.10;10.20;;;16.20;94.90;;;;;;5055033;28;20183;-80
2021/05/15 10:17:04;;;;;;;11.13;10.27;;;16.10;95.50;;;;;;5053543;28;20188;-80
2021/05/15 10:19:30;;;;;;;10.53;9.73;;;16.10;96.00;;;;;;5036682;28;20204;-79
2021/05/15 10:21:57;;;;;;;10.20;9.50;;;16.10;96.50;;;;;;5053074;28;20817;-80
2021/05/15 10:24:26;;;;;;;10.60;9.80;;;16.20;96.40;;;;;;5053587;28;20419;-80
2021/05/15 10:27:18;;;;;;;10.67;9.87;;;16.30;96.40;;;;;;5053506;28;20458;-84
2021/05/15 10:29:47;;;;;;;11.07;10.27;;;16.50;96.60;;;;;;5031721;28;20447;-81
2021/05/15 10:32:22;;;;;;;11.80;10.80;;;16.80;96.20;;;;;;5054960;28;20419;-80
2021/05/15 10:34:57;;;;;;;9.33;8.73;;;17.10;97.10;;;;;;5053987;28;20439;-81
2021/05/15 10:37:23;;;;;;;9.60;8.80;;;17.20;95.10;;;;;;5054699;28;20466;-80
2021/05/15 10:39:49;;;;;;;9.03;8.33;;;17.40;94.80;;;;;;5054601;28;20404;-80
2021/05/15 10:42:28;;;;;;;8.83;8.23;;;17.50;93.70;;;;;;5054427;28;20629;-80
2021/05/15 10:44:56;;;;;;;9.40;8.70;;;17.50;93.40;;;;;;5053594;28;20773;-79
2021/05/15 10:47:22;;;;;;;8.10;7.60;;;17.50;92.70;;;;;;5054549;28;20518;-80
2021/05/15 10:49:49;;;;;;;5.80;5.50;;;17.50;92.30;;;;;;5054201;28;20416;-80
2021/05/15 10:52:17;;;;;;;5.70;5.40;;;17.50;91.50;;;;;;5054648;28;20183;-79
2021/05/15 10:54:48;;;;;;;6.27;5.87;;;17.60;91.20;;;;;;5054384;28;20795;-81
2021/05/15 10:57:16;;;;;;;4.80;4.60;;;17.80;91.10;;;;;;5054993;28;20450;-79
2021/05/15 10:59:56;;;;;;;4.90;4.60;;;17.60;86.80;;;;;;5054250;28;20435;-80
2021/05/15 11:02:30;;;;;;;4.40;4.10;;;17.70;87.00;;;;;;5054764;28;20396;-81
2021/05/15 11:04:55;;;;;;;4.80;4.50;;;17.80;87.50;;;;;;5052006;28;20446;-81
2021/05/15 11:07:35;;;;;;;4.63;4.33;;;17.90;84.80;;;;;;5052825;28;20857;-81
2021/05/15 11:10:06;;;;;;;5.83;5.40;;;18.00;85.60;;;;;;5052826;28;20543;-83
2021/05/15 11:12:40;;;;;;;4.97;4.67;;;18.00;86.10;;;;;;5054077;28;20405;-80
2021/05/15 11:15:09;;;;;;;5.13;4.83;;;18.00;82.50;;;;;;5052741;28;20436;-83
2021/05/15 11:17:35;;;;;;;2.87;2.77;;;17.90;82.20;;;;;;5054116;28;20439;-83
2021/05/15 11:20:16;;;;;;;56.23;41.03;;;17.70;80.70;;;;;;5035595;28;20435;-84
2021/05/15 11:22:51;;;;;;;6.83;6.10;;;17.20;76.70;;;;;;5036397;28;20883;-83
2021/05/15 11:25:18;;;;;;;3.60;2.67;;;16.70;80.30;;;;;;5053827;28;20817;-81
2021/05/15 11:28:02;;;;;;;2.67;2.47;;;16.60;82.20;;;;;;5053606;28;20472;-81
2021/05/15 11:30:32;;;;;;;2.60;2.50;;;16.50;84.00;;;;;;5054030;28;20409;-80
2021/05/15 11:33:08;;;;;;;3.60;3.40;;;16.30;88.20;;;;;;5034527;28;20478;-81
2021/05/15 11:35:37;;;;;;;3.73;3.53;;;16.20;90.70;;;;;;5053253;28;20825;-81
2021/05/15 11:38:26;;;;;;;3.50;3.20;;;16.20;91.50;;;;;;5052361;28;20777;-82
2021/05/15 11:40:54;;;;;;;3.70;3.50;;;16.20;91.10;;;;;;5033087;28;20426;-81
2021/05/15 11:43:28;;;;;;;3.30;3.20;;;16.10;90.90;;;;;;5031847;28;20828;-81
2021/05/15 11:45:54;;;;;;;3.90;3.70;;;16.10;90.90;;;;;;5052492;28;20422;-81
2021/05/15 11:48:25;;;;;;;3.53;3.23;;;16.10;90.80;;;;;;5051644;28;20871;-82
2021/05/15 11:51:14;;;;;;;2.93;2.83;;;16.00;90.00;;;;;;5051794;28;20410;-81
2021/05/15 11:53:44;;;;;;;3.10;3.00;;;15.70;90.20;;;;;;5052576;28;20424;-81
2021/05/15 11:56:15;;;;;;;3.53;3.23;;;15.70;90.70;;;;;;5034063;28;21116;-80
2021/05/15 11:58:51;;;;;;;3.23;3.13;;;15.60;91.40;;;;;;5053019;28;20424;-79
2021/05/15 12:01:21;;;;;;;3.23;3.10;;;15.60;92.00;;;;;;5053058;28;20474;-78
2021/05/15 12:03:48;;;;;;;3.80;3.60;;;15.60;91.40;;;;;;5052699;28;20915;-80
2021/05/15 12:06:15;;;;;;;3.00;2.90;;;15.50;91.60;;;;;;5053301;28;20784;-81
2021/05/15 12:08:42;;;;;;;3.00;2.87;;;15.50;92.90;;;;;;5053181;28;20542;-81
2021/05/15 12:11:08;;;;;;;3.10;3.00;;;15.60;93.30;;;;;;5053987;28;20420;-82
2021/05/15 12:13:34;;;;;;;3.03;2.93;;;15.70;94.30;;;;;;5042082;28;20427;-80
2021/05/15 12:16:03;;;;;;;155.60;108.57;;;15.60;93.10;;;;;;5051859;28;20529;-81
2021/05/15 12:18:30;;;;;;;4.30;4.00;;;15.70;93.30;;;;;;5052661;28;20179;-81
2021/05/15 12:20:56;;;;;;;3.90;3.60;;;15.60;93.50;;;;;;5051533;28;20430;-81
2021/05/15 12:23:24;;;;;;;3.47;3.27;;;15.70;93.60;;;;;;5052515;28;20458;-81
2021/05/15 12:26:07;;;;;;;3.60;3.40;;;15.80;93.00;;;;;;5064565;28;20826;-81
2021/05/15 12:28:41;;;;;;;3.73;3.53;;;16.00;92.60;;;;;;5072882;28;20913;-81
2021/05/15 12:31:18;;;;;;;3.90;3.70;;;16.10;92.50;;;;;;5072324;28;20402;-81
2021/05/15 12:33:44;;;;;;;3.73;3.60;;;16.30;93.30;;;;;;5072912;28;20413;-81
2021/05/15 12:36:10;;;;;;;3.90;3.67;;;16.10;92.80;;;;;;5072478;28;20445;-81
2021/05/15 12:38:47;;;;;;;3.53;3.33;;;16.20;92.60;;;;;;5072880;28;20195;-81
2021/05/15 12:41:16;;;;;;;3.50;3.40;;;16.30;91.40;;;;;;5072484;28;20211;-81
2021/05/15 12:43:47;;;;;;;3.70;3.50;;;16.40;92.10;;;;;;5072448;28;20426;-81
2021/05/15 12:46:17;;;;;;;3.83;3.60;;;16.50;90.70;;;;;;5071102;28;20451;-81
2021/05/15 12:48:56;;;;;;;6.23;3.33;;;16.50;91.70;;;;;;5072842;28;20433;-81